Terminal Aerodrome Forecast
Issued by NWS

Home | Current Version | Previous Version | Text Only | Print | Product List | Glossary On
Versions: 1 2 3 4 5 6 7 8 9 10 11 12 13 14 15
000
FTUS45 KCYS 282351 CCA
TAFAIA
TAF COR
KAIA 282351Z 2900/2924 08008KT P6SM SCT050
     FM290800 23005KT P6SM BKN015
     FM291600 26006KT P6SM SCT050=

USA.gov is the U.S. government's official web portal to all federal, state and local government web resources and services.